San Francisco, CA

3:38 PM PDT on September 16, 2014 (GMT -0700)
The Castro | Change Station
CLOSE
Current Station
Personal Weather Station
Location: San Francisco, CA
Elevation: 188 ft
Nearby Weather Stations

Elev 188 ft 37.76 °N, 122.43 °W | Updated 7 minutes ago

Clear
Clear
72.0 °F
Feels Like 72.0 °F
N
11.0
Wind Variable Wind from WNW
Gusts 18.0 mph

Today
High -- | Low -- °F
--% Chance of Precip.
Yesterday
High -- | Low -- °F
Precip. -- in
6:52 AM 7:15 PM
Last Quarter, 42% visible
Pressure 29.85 in
Visibility 10.0 miles
Clouds Scattered Clouds 18000 ft
Dew Point Not available.
Humidity Not available.
Rainfall -999.00 in
Snow Depth 0 in , 0 in , 0 in
UV 3.3 out of 12
Pollen 5.20 out of 12
Air Quality Not available.
Flu Activity Not available.
METAR KSFO 162156Z 29016KT 10SM SCT180 25/14 A2985 RMK AO2 SLP108 T02500139

More Conditions Fewer Conditions

Pressure 29.85 in
Visibility 10.0 miles
Clouds Scattered Clouds 18000 ft
Dew Point Not available.
Humidity Not available.
Rainfall -999.00 in
Snow Depth 0 in , 0 in , 0 in
UV 3.3 out of 12
Pollen 5.20 out of 12
Air Quality Not available.
Flu Activity Not available.
METAR KSFO 162156Z 29016KT 10SM SCT180 25/14 A2985 RMK AO2 SLP108 T02500139

More Conditions Fewer Conditions

10-Day Weather Forecast

Almanac

Astronomy

Sep. 16, 2014 Rise Set
Actual Time 6:52 AM PDT 7:15 PM PDT
Civil Twilight 6:26 AM PDT 7:42 PM PDT
Nautical Twilight 5:55 AM PDT 8:12 PM PDT
Astronomical Twilight 5:23 AM PDT 8:44 PM PDT
Moon 12:11 AM PDT 2:39 PM PDT
Length of Visible Light 13h 15m
Length of Day
12h 23m
Tomorrow will be 2m 24s shorter.
Last Quarter, 42% of the Moon is Illuminated
Today
Last Quarter
Sep 24
New
Oct 1
First Quarter
Oct 8
Full
Oct 15
Last Quarter

Today's Extremes

State Highs State Lows

Community

WunderPhotos

Upload Photos

1,753,896 photos uploaded!

Nearby

Air Quality

  Air Quality AQ Index Pollutant
Yesterday Good
PM2.5
Yesterday Good
OZONE
Tuesday Good
PM2.5
Wednesday Good
PM2.5
Thursday Good
PM2.5
Friday Good
PM2.5
Saturday Moderate
PM2.5
Sunday Moderate
PM2.5

Snow Depth

Station Depth Elevation
Adin Mountain 0 in 6200 ft
Leavitt Meadows 0 in 7200 ft
Summit Meadow 0 in 9122 ft
CSS Lab 1 in 6900 ft

Earthquake Activity

City Distance Mag. Time & Date
Cobb, California 73 miles 2.8 1:23 PM PDT
2014-09-16
Covelo, California 142 miles 3.3 1:17 PM PDT
2014-09-14
Cobb, California 76 miles 2.7 11:07 AM PDT
2014-09-14
Minimum magnitude displayed is 2.5.

Coastal Water Temperatures

Place Temperature
No Stations Reporting

Nearby Weather Stations